Time;durP1;ratioP1;P1;durP2;ratioP2;P2;SDS_P1;SDS_P2;PMS_P1;PMS_P2;Temp;Humidity;BMP_temperature;BMP_pressure;BME280_temperature;BME280_humidity;BME280_pressure;Samples;Min_cycle;Max_cycle;Signal;HPM_P1;HPM_P2
2023/04/30 00:00:23;;;;;;;34.10;17.63;;;10.60;99.90;;;;;;4151175;28;20628;-94
2023/04/30 00:02:24;;;;;;;39.13;20.37;;;10.80;99.90;;;;;;4151510;28;20268;-95
2023/04/30 00:04:25;;;;;;;34.77;17.10;;;10.90;99.90;;;;;;4151004;28;20193;-95
2023/04/30 00:06:26;;;;;;;33.07;17.60;;;10.80;99.90;;;;;;4151016;28;20180;-96
2023/04/30 00:08:28;;;;;;;26.10;17.20;;;10.80;99.90;;;;;;4151312;28;20216;-94
2023/04/30 00:10:29;;;;;;;31.53;17.00;;;10.70;99.90;;;;;;4151104;28;20177;-93
2023/04/30 00:12:30;;;;;;;29.70;16.30;;;10.70;99.90;;;;;;4150956;28;20177;-95
2023/04/30 00:14:31;;;;;;;29.60;15.37;;;10.70;99.90;;;;;;4150454;28;20192;-91
2023/04/30 00:16:32;;;;;;;23.70;15.17;;;10.60;99.90;;;;;;4166848;28;20208;-93
2023/04/30 00:18:33;;;;;;;26.33;14.57;;;10.70;99.90;;;;;;4150552;28;20309;-93
2023/04/30 00:20:36;;;;;;;24.57;13.90;;;10.60;99.90;;;;;;4166769;28;20168;-94
2023/04/30 00:22:37;;;;;;;25.17;14.57;;;10.60;99.90;;;;;;4150323;28;20624;-94
2023/04/30 00:24:38;;;;;;;23.00;13.97;;;10.60;99.90;;;;;;4150487;28;20695;-94
2023/04/30 00:26:39;;;;;;;21.70;13.50;;;10.50;99.90;;;;;;4150803;28;20169;-93
2023/04/30 00:28:40;;;;;;;23.13;13.13;;;10.50;99.90;;;;;;4150889;28;20168;-93
2023/04/30 00:30:41;;;;;;;22.90;13.77;;;10.40;99.90;;;;;;4150815;28;20181;-93
2023/04/30 00:32:45;;;;;;;23.87;13.40;;;10.30;99.90;;;;;;4150686;28;20176;-95
2023/04/30 00:34:46;;;;;;;26.40;14.27;;;10.20;99.90;;;;;;4166609;28;20184;-95
2023/04/30 00:36:52;;;;;;;29.03;14.30;;;10.20;99.90;;;;;;4166805;28;20207;-93
2023/04/30 00:38:57;;;;;;;25.63;13.87;;;10.20;99.90;;;;;;4150425;28;20533;-95
2023/04/30 00:40:58;;;;;;;22.40;13.70;;;10.20;99.90;;;;;;4150276;28;20184;-94
2023/04/30 00:42:59;;;;;;;31.40;14.27;;;10.30;99.90;;;;;;4149905;28;20192;-93
2023/04/30 00:45:03;;;;;;;26.47;14.63;;;10.30;99.90;;;;;;4166583;28;20180;-94
2023/04/30 00:47:04;;;;;;;23.17;14.20;;;10.30;99.90;;;;;;4150696;28;20180;-95
2023/04/30 00:49:07;;;;;;;23.33;14.13;;;10.20;99.90;;;;;;4150345;28;20169;-96
2023/04/30 00:51:10;;;;;;;26.10;15.17;;;10.10;99.90;;;;;;4150330;28;20318;-96
2023/04/30 00:53:12;;;;;;;21.27;13.53;;;10.00;99.90;;;;;;4150093;28;20193;-95
2023/04/30 00:55:13;;;;;;;25.47;13.87;;;9.90;99.90;;;;;;4149987;28;20177;-94
2023/04/30 00:57:15;;;;;;;23.17;13.50;;;9.80;99.90;;;;;;4166383;28;20212;-96
2023/04/30 00:59:18;;;;;;;23.20;13.57;;;9.80;99.90;;;;;;4150388;28;20176;-92
2023/04/30 01:01:31;;;;;;;25.20;12.33;;;9.80;99.90;;;;;;4150601;28;20177;-94
2023/04/30 01:03:35;;;;;;;20.57;12.60;;;9.90;99.90;;;;;;4150675;28;20192;-93
2023/04/30 01:05:36;;;;;;;23.23;12.50;;;10.00;99.90;;;;;;4149630;28;20189;-94
2023/04/30 01:07:48;;;;;;;18.97;12.10;;;10.10;99.90;;;;;;4168111;28;20172;-93
2023/04/30 01:09:49;;;;;;;27.63;12.17;;;10.20;99.90;;;;;;4150299;28;20215;-93
2023/04/30 01:12:20;;;;;;;19.70;11.10;;;10.10;99.90;;;;;;4150395;28;20271;-95
2023/04/30 01:14:27;;;;;;;20.87;10.93;;;10.10;99.90;;;;;;4150524;28;20192;-94
2023/04/30 01:16:38;;;;;;;18.80;10.87;;;10.10;99.90;;;;;;4167240;28;20248;-95
2023/04/30 01:18:47;;;;;;;21.03;10.97;;;10.10;99.90;;;;;;4151904;28;20169;-93
2023/04/30 01:21:03;;;;;;;17.90;10.17;;;10.20;99.90;;;;;;4167247;28;20176;-94
2023/04/30 01:23:34;;;;;;;21.50;10.33;;;10.30;99.90;;;;;;4152217;28;20656;-93
2023/04/30 01:25:41;;;;;;;19.63;10.37;;;10.10;99.90;;;;;;4151979;28;20181;-94
2023/04/30 01:27:54;;;;;;;14.17;8.93;;;10.20;99.90;;;;;;4152417;28;20177;-95
2023/04/30 01:29:56;;;;;;;15.47;8.90;;;10.40;99.90;;;;;;4167864;28;20184;-94
2023/04/30 01:31:58;;;;;;;17.40;8.77;;;10.60;99.90;;;;;;4150640;28;20165;-93
2023/04/30 01:33:59;;;;;;;15.87;8.87;;;10.70;99.90;;;;;;4166442;28;20219;-94
2023/04/30 01:36:07;;;;;;;18.27;9.53;;;10.70;99.90;;;;;;4166386;28;20215;-93
2023/04/30 01:38:29;;;;;;;18.20;9.53;;;10.70;99.90;;;;;;4150153;28;20172;-95
2023/04/30 01:41:00;;;;;;;15.63;9.43;;;10.60;99.90;;;;;;4166605;28;20188;-95
2023/04/30 01:43:13;;;;;;;18.67;9.80;;;10.50;99.90;;;;;;4146188;28;20193;-94
2023/04/30 01:45:22;;;;;;;16.67;10.27;;;10.40;99.90;;;;;;4150081;28;20177;-93
2023/04/30 01:47:29;;;;;;;17.30;9.87;;;10.30;99.90;;;;;;4166116;28;20171;-93
2023/04/30 01:49:36;;;;;;;18.97;10.23;;;10.30;99.90;;;;;;4150346;28;20346;-94
2023/04/30 01:51:41;;;;;;;19.00;9.70;;;10.30;99.90;;;;;;4149642;28;20617;-93
2023/04/30 01:53:45;;;;;;;16.27;10.07;;;10.20;99.90;;;;;;4166481;28;20239;-94
2023/04/30 01:56:01;;;;;;;15.80;9.73;;;10.30;99.90;;;;;;4166515;28;20195;-93
2023/04/30 01:58:08;;;;;;;21.77;10.30;;;10.20;99.90;;;;;;4149701;28;20184;-94
2023/04/30 02:00:13;;;;;;;16.13;9.10;;;10.30;99.90;;;;;;4149971;28;20268;-94
2023/04/30 02:02:17;;;;;;;15.10;9.00;;;10.30;99.90;;;;;;4166294;28;20176;-94
2023/04/30 02:04:31;;;;;;;15.67;8.30;;;10.40;99.90;;;;;;4150598;28;20197;-93
2023/04/30 02:06:41;;;;;;;13.10;8.33;;;10.60;99.90;;;;;;4148808;28;20192;-94
2023/04/30 02:08:44;;;;;;;12.40;7.97;;;10.70;99.90;;;;;;4165206;28;20244;-93
2023/04/30 02:10:45;;;;;;;19.03;8.77;;;10.70;99.90;;;;;;4149134;28;20177;-94
2023/04/30 02:12:47;;;;;;;11.90;7.77;;;10.80;99.90;;;;;;4148827;28;20165;-93
2023/04/30 02:14:47;;;;;;;15.47;8.03;;;10.70;99.90;;;;;;4149087;28;20177;-94
2023/04/30 02:16:53;;;;;;;15.73;7.90;;;10.60;99.90;;;;;;4165578;28;20203;-94
2023/04/30 02:18:54;;;;;;;15.90;7.60;;;10.60;99.90;;;;;;4149488;28;20216;-94
2023/04/30 02:20:59;;;;;;;15.93;8.27;;;10.50;99.90;;;;;;4149373;28;20173;-95
2023/04/30 02:23:08;;;;;;;12.90;8.00;;;10.40;99.90;;;;;;4149526;28;20164;-93
2023/04/30 02:25:22;;;;;;;17.17;8.03;;;10.10;99.90;;;;;;4165811;28;20196;-95
2023/04/30 02:27:25;;;;;;;14.57;8.23;;;9.50;99.90;;;;;;4148796;28;20214;-95
2023/04/30 02:29:33;;;;;;;12.53;8.17;;;9.20;99.90;;;;;;4148727;28;20172;-96
2023/04/30 02:31:35;;;;;;;14.20;8.53;;;8.90;99.90;;;;;;4165649;28;20176;-94
2023/04/30 02:33:36;;;;;;;14.10;8.17;;;8.50;99.90;;;;;;4165017;28;20267;-94
2023/04/30 02:35:39;;;;;;;14.20;8.73;;;8.80;99.90;;;;;;4148776;28;20188;-92
2023/04/30 02:37:40;;;;;;;13.87;7.70;;;9.50;99.90;;;;;;4148529;28;20180;-92
2023/04/30 02:39:41;;;;;;;14.83;7.93;;;9.90;99.90;;;;;;4164890;28;20207;-93
2023/04/30 02:41:42;;;;;;;17.00;8.03;;;10.00;99.90;;;;;;4148478;28;20187;-94
2023/04/30 02:43:43;;;;;;;14.90;7.77;;;10.00;99.90;;;;;;4148389;28;20220;-92
2023/04/30 02:45:44;;;;;;;11.13;7.10;;;9.90;99.90;;;;;;4148261;28;20177;-93
2023/04/30 02:47:46;;;;;;;15.03;7.47;;;9.70;99.90;;;;;;4148700;28;20233;-92
2023/04/30 02:49:46;;;;;;;12.57;7.67;;;9.60;99.90;;;;;;4148448;28;20636;-94
2023/04/30 02:51:47;;;;;;;14.23;7.60;;;9.50;99.90;;;;;;4148489;28;20173;-93
2023/04/30 02:53:48;;;;;;;16.87;8.10;;;9.30;99.90;;;;;;4148336;28;20217;-93
2023/04/30 02:55:49;;;;;;;14.47;8.37;;;9.30;99.90;;;;;;4148312;28;20255;-94
2023/04/30 02:57:50;;;;;;;15.00;8.27;;;9.40;99.90;;;;;;4181365;28;20180;-95
2023/04/30 02:59:51;;;;;;;15.30;7.77;;;9.50;99.90;;;;;;4148557;28;20188;-94
2023/04/30 03:01:51;;;;;;;10.33;7.20;;;9.50;99.90;;;;;;4147787;28;20338;-94
2023/04/30 03:03:52;;;;;;;12.50;7.67;;;9.50;99.90;;;;;;4147929;28;20673;-95
2023/04/30 03:05:59;;;;;;;15.20;7.33;;;9.50;99.90;;;;;;4147971;28;20181;-92
2023/04/30 03:08:00;;;;;;;13.07;7.43;;;9.50;99.90;;;;;;4148570;28;20181;-96
2023/04/30 03:10:01;;;;;;;13.63;8.03;;;9.50;99.90;;;;;;4148600;28;20211;-94
2023/04/30 03:12:02;;;;;;;14.60;8.07;;;9.50;99.90;;;;;;4148107;28;20212;-93
2023/04/30 03:14:03;;;;;;;15.83;7.80;;;9.50;99.90;;;;;;4164242;28;20188;-94
2023/04/30 03:16:05;;;;;;;14.03;8.07;;;9.60;99.90;;;;;;4147977;28;20712;-93
2023/04/30 03:18:06;;;;;;;15.07;7.77;;;9.70;99.90;;;;;;4148203;28;20165;-94
2023/04/30 03:20:07;;;;;;;12.63;7.67;;;9.70;99.90;;;;;;4148560;28;20254;-94
2023/04/30 03:22:09;;;;;;;12.97;7.80;;;9.60;99.90;;;;;;4164878;28;20172;-95
2023/04/30 03:24:10;;;;;;;19.63;8.67;;;9.50;99.90;;;;;;4148031;28;20712;-94
2023/04/30 03:26:11;;;;;;;15.03;8.10;;;9.50;99.90;;;;;;4148397;28;20169;-95
2023/04/30 03:28:12;;;;;;;16.13;8.10;;;9.60;99.90;;;;;;4164625;28;20198;-94
2023/04/30 03:30:13;;;;;;;17.10;8.13;;;9.60;99.90;;;;;;4148115;28;20236;-93
2023/04/30 03:32:14;;;;;;;16.07;8.00;;;9.60;99.90;;;;;;4148285;28;20165;-93
2023/04/30 03:34:15;;;;;;;13.47;7.87;;;9.60;99.90;;;;;;4164264;28;20251;-94
2023/04/30 03:36:16;;;;;;;19.67;8.93;;;9.50;99.90;;;;;;4147979;28;20216;-95
2023/04/30 03:38:17;;;;;;;14.77;8.70;;;9.50;99.90;;;;;;4147928;28;20215;-93
2023/04/30 03:40:21;;;;;;;14.67;8.73;;;9.50;99.90;;;;;;4148386;28;20546;-94
2023/04/30 03:42:21;;;;;;;17.07;8.80;;;9.30;99.90;;;;;;4164382;28;20188;-94
2023/04/30 03:44:22;;;;;;;16.73;7.80;;;9.20;99.90;;;;;;4147968;28;20196;-94
2023/04/30 03:46:23;;;;;;;15.97;9.07;;;9.10;99.90;;;;;;4148045;28;20204;-95
2023/04/30 03:48:26;;;;;;;16.97;8.70;;;9.00;99.90;;;;;;4147862;28;20174;-92
2023/04/30 03:50:28;;;;;;;14.40;8.53;;;8.90;99.90;;;;;;4148162;28;20176;-93
2023/04/30 03:52:32;;;;;;;17.73;9.10;;;8.90;99.90;;;;;;4147905;28;20243;-94
2023/04/30 03:54:33;;;;;;;13.53;8.13;;;8.90;99.90;;;;;;4148038;28;20554;-94
2023/04/30 03:56:36;;;;;;;17.33;8.40;;;8.90;99.90;;;;;;4164034;28;20216;-93
2023/04/30 03:58:38;;;;;;;14.80;8.60;;;9.00;99.90;;;;;;4148051;28;20329;-93
2023/04/30 04:00:40;;;;;;;14.23;8.83;;;9.00;99.90;;;;;;4147910;28;20177;-92
2023/04/30 04:02:41;;;;;;;21.47;9.67;;;9.00;99.90;;;;;;4147736;28;20180;-92
2023/04/30 04:04:44;;;;;;;17.97;9.03;;;8.90;99.90;;;;;;4164018;28;20180;-93
2023/04/30 04:06:45;;;;;;;17.10;9.33;;;8.80;99.90;;;;;;4147752;28;20193;-92
2023/04/30 04:08:46;;;;;;;14.27;8.93;;;8.80;99.90;;;;;;4148387;28;20231;-94
2023/04/30 04:10:47;;;;;;;17.47;9.67;;;8.70;99.90;;;;;;4147875;28;20199;-93
2023/04/30 04:12:48;;;;;;;17.40;9.67;;;8.60;99.90;;;;;;4147518;28;20264;-94
2023/04/30 04:14:48;;;;;;;16.97;9.27;;;8.60;99.90;;;;;;4149791;28;20645;-93
2023/04/30 04:16:49;;;;;;;24.53;10.40;;;8.50;99.90;;;;;;4150597;28;20692;-94
2023/04/30 04:18:50;;;;;;;16.63;10.33;;;8.50;99.90;;;;;;4150627;28;20164;-94
2023/04/30 04:20:51;;;;;;;18.83;10.33;;;8.50;99.90;;;;;;4167055;28;20215;-94
2023/04/30 04:22:52;;;;;;;23.87;10.50;;;8.60;99.90;;;;;;4150830;28;20586;-93
2023/04/30 04:24:54;;;;;;;18.47;10.30;;;8.70;99.90;;;;;;4150526;28;20608;-95
2023/04/30 04:26:56;;;;;;;20.40;10.60;;;8.80;99.90;;;;;;4167063;28;20549;-93
2023/04/30 04:28:57;;;;;;;18.30;10.20;;;8.80;99.90;;;;;;4150575;28;20176;-94
2023/04/30 04:30:58;;;;;;;20.90;10.43;;;8.80;99.90;;;;;;4150616;28;20181;-93
2023/04/30 04:32:59;;;;;;;15.63;10.10;;;8.80;99.90;;;;;;4150316;28;20617;-92
2023/04/30 04:35:00;;;;;;;19.37;10.40;;;8.80;99.90;;;;;;4166997;28;20183;-94
2023/04/30 04:37:02;;;;;;;18.20;10.77;;;8.90;99.90;;;;;;4166786;28;20236;-94
2023/04/30 04:39:02;;;;;;;16.67;10.20;;;8.90;99.90;;;;;;4150606;28;20689;-95
2023/04/30 04:41:04;;;;;;;20.10;10.47;;;9.00;99.90;;;;;;4150606;28;20268;-94
2023/04/30 04:43:05;;;;;;;21.00;10.60;;;9.20;99.90;;;;;;4150633;28;20673;-93
2023/04/30 04:45:07;;;;;;;18.73;10.07;;;9.30;99.90;;;;;;4150446;28;20260;-93
2023/04/30 04:47:09;;;;;;;19.87;10.77;;;9.40;99.90;;;;;;4166908;28;20258;-93
2023/04/30 04:49:09;;;;;;;18.97;10.53;;;9.40;99.90;;;;;;4166485;28;20164;-94
2023/04/30 04:51:10;;;;;;;21.33;10.47;;;9.20;99.90;;;;;;4166510;28;20643;-92
2023/04/30 04:53:12;;;;;;;19.60;11.57;;;9.20;99.90;;;;;;4166540;28;20201;-94
2023/04/30 04:55:13;;;;;;;19.27;11.30;;;9.20;99.90;;;;;;4150044;28;20616;-93
2023/04/30 04:57:14;;;;;;;21.10;11.20;;;9.20;99.90;;;;;;4149939;28;20217;-95
2023/04/30 04:59:16;;;;;;;19.60;10.83;;;9.10;99.90;;;;;;4150304;28;20187;-94
2023/04/30 05:01:17;;;;;;;20.53;10.97;;;9.20;99.90;;;;;;4166322;28;20204;-93
2023/04/30 05:03:20;;;;;;;20.67;11.23;;;9.20;99.90;;;;;;4150216;28;20268;-94
2023/04/30 05:05:23;;;;;;;17.47;10.90;;;9.20;99.90;;;;;;4150058;28;20181;-94
2023/04/30 05:07:24;;;;;;;19.77;11.13;;;9.10;99.90;;;;;;4150464;28;20188;-95
2023/04/30 05:09:25;;;;;;;19.43;11.03;;;9.20;99.90;;;;;;4166345;28;20251;-92
2023/04/30 05:11:26;;;;;;;17.53;10.83;;;9.20;99.90;;;;;;4166265;28;20263;-94
2023/04/30 05:13:27;;;;;;;23.23;11.07;;;9.20;99.90;;;;;;4149435;28;20199;-94
2023/04/30 05:15:28;;;;;;;16.07;10.50;;;9.10;99.90;;;;;;4149847;28;20260;-93
2023/04/30 05:17:31;;;;;;;16.13;10.47;;;9.00;99.90;;;;;;4166314;28;20239;-93
2023/04/30 05:19:35;;;;;;;16.97;10.80;;;8.90;99.90;;;;;;4149499;28;20176;-93
2023/04/30 05:21:36;;;;;;;23.93;11.70;;;8.90;99.90;;;;;;4149959;28;20176;-95
2023/04/30 05:23:37;;;;;;;20.03;11.33;;;9.00;99.90;;;;;;4149547;28;20189;-94
2023/04/30 05:25:38;;;;;;;25.73;12.27;;;9.00;99.90;;;;;;4148817;28;20730;-94
2023/04/30 05:27:39;;;;;;;21.93;11.43;;;9.00;99.90;;;;;;4149933;28;20169;-94
2023/04/30 05:29:40;;;;;;;23.40;12.97;;;9.00;99.90;;;;;;4149343;28;20187;-95
2023/04/30 05:31:40;;;;;;;21.97;11.90;;;9.10;99.90;;;;;;4149599;28;20192;-94
2023/04/30 05:33:41;;;;;;;21.57;13.03;;;9.20;99.90;;;;;;4149386;28;20292;-96
2023/04/30 05:35:42;;;;;;;22.53;13.27;;;9.10;99.90;;;;;;4149368;28;20281;-92
2023/04/30 05:37:43;;;;;;;24.53;13.23;;;9.10;99.90;;;;;;4149466;28;20177;-92
2023/04/30 05:39:44;;;;;;;22.07;12.70;;;9.10;99.90;;;;;;4149384;28;20211;-93
2023/04/30 05:41:45;;;;;;;20.10;12.40;;;9.30;99.90;;;;;;4149607;28;20207;-92
2023/04/30 05:43:46;;;;;;;26.47;13.13;;;9.50;99.90;;;;;;4149467;28;20200;-94
2023/04/30 05:45:50;;;;;;;29.37;13.47;;;9.50;99.90;;;;;;4149180;28;20219;-93
2023/04/30 05:47:58;;;;;;;24.47;14.37;;;9.70;99.90;;;;;;4150004;28;20177;-94
2023/04/30 05:50:24;;;;;;;20.37;12.73;;;9.80;99.90;;;;;;4149651;28;20180;-95
2023/04/30 05:52:25;;;;;;;22.83;12.90;;;9.80;99.90;;;;;;4165978;28;20172;-95
2023/04/30 05:54:35;;;;;;;25.43;13.73;;;9.90;99.90;;;;;;4165933;28;20199;-96
2023/04/30 05:56:39;;;;;;;22.13;13.70;;;9.60;99.90;;;;;;4149944;28;20573;-96
2023/04/30 05:58:41;;;;;;;22.17;13.57;;;9.60;99.90;;;;;;4165873;28;20178;-93
2023/04/30 06:00:41;;;;;;;28.57;13.27;;;9.80;99.90;;;;;;4149247;28;20187;-93
2023/04/30 06:02:42;;;;;;;25.60;13.90;;;10.00;99.90;;;;;;4149250;28;20161;-95
2023/04/30 06:04:43;;;;;;;26.23;13.57;;;9.90;99.90;;;;;;4149001;28;20185;-95
2023/04/30 06:06:50;;;;;;;24.50;12.67;;;9.70;99.90;;;;;;4150001;28;20629;-94
2023/04/30 06:08:55;;;;;;;18.57;11.63;;;9.70;99.90;;;;;;4149872;28;20219;-94
2023/04/30 06:10:56;;;;;;;21.93;12.50;;;10.00;99.90;;;;;;4149717;28;20172;-93
2023/04/30 06:12:57;;;;;;;20.50;12.77;;;10.00;99.90;;;;;;4149541;28;20219;-94
2023/04/30 06:14:58;;;;;;;21.57;12.33;;;9.90;99.90;;;;;;4149413;28;20173;-94
2023/04/30 06:16:59;;;;;;;21.53;12.73;;;9.70;99.90;;;;;;4149274;28;20222;-93
2023/04/30 06:19:00;;;;;;;22.20;12.03;;;9.60;99.90;;;;;;4149384;28;20227;-93
2023/04/30 06:21:01;;;;;;;22.53;12.70;;;9.60;99.90;;;;;;4149166;28;20177;-93
2023/04/30 06:23:02;;;;;;;22.43;12.77;;;9.70;99.90;;;;;;4165614;28;20164;-94
2023/04/30 06:25:03;;;;;;;22.15;12.63;;;10.20;99.90;;;;;;4166004;28;20172;-95
2023/04/30 06:27:05;;;;;;;20.03;12.33;;;10.40;99.90;;;;;;4165807;28;20282;-95
2023/04/30 06:29:09;;;;;;;21.98;12.82;;;10.40;99.90;;;;;;4149186;28;20181;-95
2023/04/30 06:31:10;;;;;;;20.08;12.32;;;10.40;99.90;;;;;;4165203;28;20525;-95
2023/04/30 06:33:15;;;;;;;19.85;12.70;;;10.70;99.90;;;;;;4165062;28;20730;-96
2023/04/30 06:35:16;;;;;;;21.83;13.50;;;11.10;99.90;;;;;;4148594;28;20530;-92
2023/04/30 06:37:17;;;;;;;23.55;13.85;;;11.60;99.90;;;;;;4165362;28;20208;-95
2023/04/30 06:39:21;;;;;;;21.05;14.52;;;11.90;99.90;;;;;;4148748;28;20180;-94
2023/04/30 06:41:25;;;;;;;22.00;14.13;;;12.00;99.90;;;;;;4149015;28;20235;-94
2023/04/30 06:43:28;;;;;;;21.52;14.52;;;12.00;99.90;;;;;;4165098;28;20191;-92
2023/04/30 06:45:29;;;;;;;24.58;15.23;;;11.90;99.90;;;;;;4148955;28;20192;-94
2023/04/30 06:47:33;;;;;;;25.35;15.98;;;12.10;99.90;;;;;;4149557;28;20180;-95
2023/04/30 06:49:34;;;;;;;22.00;15.00;;;12.20;99.90;;;;;;4165017;28;20175;-92
2023/04/30 06:51:36;;;;;;;23.33;15.55;;;12.20;99.90;;;;;;4148873;28;20176;-94
2023/04/30 06:53:39;;;;;;;27.02;15.20;;;12.30;99.90;;;;;;4165753;28;20277;-95
2023/04/30 06:55:45;;;;;;;25.63;15.90;;;12.30;99.90;;;;;;4149225;28;20255;-93
2023/04/30 06:57:46;;;;;;;25.50;16.08;;;12.40;99.90;;;;;;4165353;28;20187;-95
2023/04/30 06:59:47;;;;;;;24.35;15.63;;;12.60;99.90;;;;;;4165321;28;20215;-94
2023/04/30 07:01:48;;;;;;;28.40;15.45;;;12.70;99.90;;;;;;4148417;28;20173;-94
2023/04/30 07:03:50;;;;;;;29.05;17.17;;;13.00;99.90;;;;;;4148400;28;20200;-95
2023/04/30 07:05:52;;;;;;;27.42;16.25;;;13.10;99.90;;;;;;4164966;28;20223;-94
2023/04/30 07:07:53;;;;;;;25.60;16.23;;;13.10;99.90;;;;;;4148584;28;20641;-95
2023/04/30 07:09:54;;;;;;;25.75;15.52;;;13.40;99.90;;;;;;4148659;28;20177;-96
2023/04/30 07:11:57;;;;;;;24.63;14.93;;;13.90;99.90;;;;;;4148874;28;20341;-95
2023/04/30 07:13:58;;;;;;;24.88;14.75;;;14.60;99.90;;;;;;4165499;28;20194;-93
2023/04/30 07:15:59;;;;;;;23.83;13.93;;;15.60;99.90;;;;;;4164743;28;20211;-95
2023/04/30 07:18:02;;;;;;;22.25;14.07;;;16.50;99.90;;;;;;4164700;28;20628;-95
2023/04/30 07:20:04;;;;;;;20.67;14.90;;;17.30;99.90;;;;;;4149195;28;20177;-95
2023/04/30 07:22:08;;;;;;;23.90;12.93;;;17.80;99.90;;;;;;4166112;28;20180;-96
2023/04/30 07:24:11;;;;;;;21.45;13.45;;;18.10;99.90;;;;;;4149627;28;20207;-94
2023/04/30 07:26:15;;;;;;;21.65;13.85;;;18.90;99.90;;;;;;4149738;28;20173;-95
2023/04/30 07:28:16;;;;;;;23.77;14.45;;;19.30;99.90;;;;;;4164641;28;20544;-93
2023/04/30 07:30:27;;;;;;;19.77;14.23;;;19.20;99.90;;;;;;4164669;28;20174;-96
2023/04/30 07:32:28;;;;;;;21.15;14.13;;;19.20;99.90;;;;;;4148378;28;20239;-95
2023/04/30 07:34:32;;;;;;;19.25;13.40;;;19.20;99.90;;;;;;4148911;28;20208;-95
2023/04/30 07:36:37;;;;;;;19.33;13.20;;;19.00;99.90;;;;;;4165601;28;20662;-95
2023/04/30 07:38:38;;;;;;;19.77;13.90;;;19.00;99.90;;;;;;4149021;28;20268;-94
2023/04/30 07:40:47;;;;;;;21.13;14.35;;;19.80;99.90;;;;;;4149351;28;20169;-96
2023/04/30 07:42:48;;;;;;;23.52;14.20;;;19.90;99.90;;;;;;4149090;28;20192;-95
2023/04/30 07:44:51;;;;;;;25.13;14.60;;;20.30;99.90;;;;;;4148155;28;20678;-94
2023/04/30 07:46:52;;;;;;;23.33;14.85;;;20.30;99.90;;;;;;4147748;28;20629;-94
2023/04/30 07:48:53;;;;;;;22.55;14.68;;;20.20;99.90;;;;;;4148895;28;20183;-93
2023/04/30 07:50:56;;;;;;;21.75;14.52;;;20.00;99.90;;;;;;4168192;28;20263;-96
2023/04/30 07:52:57;;;;;;;19.52;14.73;;;19.90;99.90;;;;;;4151714;28;20234;-94
2023/04/30 07:54:58;;;;;;;22.02;13.80;;;20.00;99.90;;;;;;4167611;28;20583;-94
2023/04/30 07:57:02;;;;;;;27.45;14.63;;;20.00;99.90;;;;;;4167652;28;20216;-95
2023/04/30 07:59:07;;;;;;;17.95;13.32;;;20.30;99.90;;;;;;4151376;28;20256;-95
2023/04/30 08:01:08;;;;;;;19.50;13.70;;;20.30;99.90;;;;;;4153063;28;20185;-95
2023/04/30 08:03:10;;;;;;;22.48;14.30;;;20.30;99.90;;;;;;4170742;28;20200;-94
2023/04/30 08:05:14;;;;;;;20.13;14.10;;;21.10;99.90;;;;;;4153751;28;20204;-95
2023/04/30 08:07:19;;;;;;;20.63;14.73;;;21.20;99.90;;;;;;4167908;28;20183;-95
2023/04/30 08:09:37;;;;;;;23.70;13.70;;;22.00;99.90;;;;;;4151312;28;20259;-95
2023/04/30 08:11:41;;;;;;;18.27;14.38;;;21.70;99.90;;;;;;4168460;28;20184;-94
2023/04/30 08:13:45;;;;;;;24.73;15.52;;;22.30;99.90;;;;;;4167028;28;20758;-94
2023/04/30 08:15:46;;;;;;;20.85;14.65;;;22.10;99.90;;;;;;4150973;28;20530;-94
2023/04/30 08:17:50;;;;;;;23.50;14.85;;;21.80;99.90;;;;;;4152978;28;20195;-96
2023/04/30 08:19:51;;;;;;;24.48;14.13;;;21.60;99.90;;;;;;4152896;28;20642;-96
2023/04/30 08:22:03;;;;;;;21.92;15.13;;;21.10;99.90;;;;;;4152619;28;20196;-94
2023/04/30 08:24:04;;;;;;;22.58;15.65;;;21.60;99.90;;;;;;4151814;28;20192;-95
2023/04/30 08:26:12;;;;;;;25.73;15.20;;;21.90;99.90;;;;;;4153329;28;20207;-96
2023/04/30 08:28:21;;;;;;;21.85;13.50;;;22.00;99.90;;;;;;4153138;28;20172;-95
2023/04/30 08:30:22;;;;;;;23.08;14.60;;;21.20;99.90;;;;;;4151796;28;20189;-94
2023/04/30 08:32:36;;;;;;;22.77;14.88;;;21.60;99.90;;;;;;4154653;28;20209;-96
2023/04/30 08:34:39;;;;;;;21.08;14.10;;;22.00;99.90;;;;;;4154244;28;20208;-96
2023/04/30 08:36:45;;;;;;;16.42;13.02;;;21.90;99.90;;;;;;4154699;28;20234;-96
2023/04/30 08:39:09;;;;;;;21.42;13.25;;;21.90;99.90;;;;;;4155707;28;20188;-94
2023/04/30 08:41:14;;;;;;;17.73;13.02;;;22.20;99.90;;;;;;4138782;28;20182;-93
2023/04/30 08:43:26;;;;;;;17.55;13.65;;;21.40;99.90;;;;;;4173128;28;20534;-96
2023/04/30 08:45:40;;;;;;;20.60;13.30;;;21.60;99.90;;;;;;4155886;28;20176;-96
2023/04/30 08:47:41;;;;;;;19.10;13.73;;;22.00;99.90;;;;;;4153427;28;20169;-95
2023/04/30 08:49:45;;;;;;;19.00;12.93;;;22.10;99.90;;;;;;4156416;28;20213;-96
2023/04/30 08:51:46;;;;;;;16.02;12.40;;;21.80;99.90;;;;;;4155875;28;20186;-96
2023/04/30 08:53:52;;;;;;;17.55;12.48;;;22.00;99.90;;;;;;4154236;28;20189;-96
2023/04/30 08:56:11;;;;;;;16.88;12.75;;;21.70;99.90;;;;;;4157676;28;20177;-94
2023/04/30 08:58:22;;;;;;;17.75;12.30;;;22.30;99.90;;;;;;4158196;28;20168;-96
2023/04/30 09:01:12;;;;;;;16.92;10.95;;;22.80;99.90;;;;;;4169966;28;20171;-96
2023/04/30 09:03:22;;;;;;;15.90;11.10;;;22.40;99.90;;;;;;4158634;28;20199;-95
2023/04/30 09:05:32;;;;;;;14.02;10.88;;;22.30;99.90;;;;;;4155334;28;20188;-96
2023/04/30 09:08:13;;;;;;;14.43;11.38;;;22.50;99.90;;;;;;4156280;28;20196;-95
2023/04/30 09:10:22;;;;;;;15.20;11.80;;;22.20;99.90;;;;;;4122110;28;20189;-95
2023/04/30 09:12:24;;;;;;;15.10;11.10;;;22.30;99.90;;;;;;4149836;28;20257;-95
2023/04/30 09:14:26;;;;;;;12.80;9.68;;;21.80;99.90;;;;;;4140268;28;20243;-95
2023/04/30 09:19:51;;;;;;;14.25;8.82;;;21.00;99.90;;;;;;4119342;28;20172;-96
2023/04/30 09:22:18;;;;;;;15.13;10.23;;;20.90;99.90;;;;;;4107878;29;20191;-96
2023/04/30 09:25:25;;;;;;;14.25;9.35;;;21.20;99.90;;;;;;4164515;28;20710;-96
2023/04/30 09:27:29;;;;;;;14.50;8.90;;;20.90;99.90;;;;;;4158609;28;20184;-96
2023/04/30 09:29:39;;;;;;;12.82;8.45;;;21.00;99.90;;;;;;4166801;28;20180;-95
2023/04/30 09:31:46;;;;;;;14.23;8.10;;;20.20;99.90;;;;;;4157258;28;20172;-96
2023/04/30 09:33:50;;;;;;;14.40;8.68;;;20.70;99.90;;;;;;4156739;28;20679;-95
2023/04/30 09:36:03;;;;;;;14.43;8.18;;;21.10;99.90;;;;;;4158013;28;20259;-96
2023/04/30 09:38:37;;;;;;;13.88;7.22;;;21.00;99.90;;;;;;4191466;28;20191;-95
2023/04/30 09:40:50;;;;;;;11.38;7.57;;;21.40;99.90;;;;;;4168440;28;20179;-94
2023/04/30 09:43:00;;;;;;;15.52;8.13;;;21.50;99.90;;;;;;4168515;28;20176;-95
2023/04/30 09:45:03;;;;;;;10.18;7.85;;;20.80;99.90;;;;;;4154217;28;20199;-96
2023/04/30 09:47:18;;;;;;;11.52;7.20;;;20.70;99.90;;;;;;4158063;28;20507;-95
2023/04/30 09:49:20;;;;;;;11.82;7.53;;;20.60;99.90;;;;;;4138855;28;20713;-94
2023/04/30 09:51:34;;;;;;;10.73;7.57;;;20.80;99.90;;;;;;4169476;28;20203;-95
2023/04/30 09:53:55;;;;;;;12.52;7.60;;;20.40;99.90;;;;;;4153884;28;20209;-95
2023/04/30 09:56:09;;;;;;;11.77;7.15;;;20.10;99.90;;;;;;4173138;28;20178;-94
2023/04/30 09:58:13;;;;;;;11.55;8.18;;;20.40;99.90;;;;;;4144412;28;20193;-96
2023/04/30 10:00:15;;;;;;;12.20;7.80;;;20.40;99.90;;;;;;4149810;28;20633;-95
2023/04/30 10:02:18;;;;;;;12.07;8.80;;;19.90;99.90;;;;;;4149864;28;20173;-95
2023/04/30 10:04:20;;;;;;;13.68;8.25;;;19.60;99.90;;;;;;4144290;28;20205;-95
2023/04/30 10:06:30;;;;;;;11.43;8.35;;;19.30;99.90;;;;;;4156981;28;20243;-94
2023/04/30 10:08:38;;;;;;;14.02;9.40;;;19.30;99.90;;;;;;4168948;28;20522;-93
2023/04/30 10:10:44;;;;;;;10.00;7.47;;;19.40;99.90;;;;;;4149166;28;20235;-94
2023/04/30 10:12:52;;;;;;;15.93;8.48;;;19.20;99.90;;;;;;4148873;28;20191;-94
2023/04/30 10:15:01;;;;;;;13.18;8.57;;;18.90;99.90;;;;;;4151217;28;20180;-96
2023/04/30 10:17:12;;;;;;;12.68;8.48;;;18.60;99.90;;;;;;4169417;28;20264;-96
2023/04/30 10:19:17;;;;;;;12.63;8.80;;;18.60;99.90;;;;;;4153041;28;20179;-94
2023/04/30 10:21:26;;;;;;;13.88;9.07;;;18.80;99.90;;;;;;4165400;28;20216;-95
2023/04/30 10:23:29;;;;;;;13.18;8.60;;;18.70;99.90;;;;;;4167542;28;20199;-95
2023/04/30 10:25:31;;;;;;;13.85;9.30;;;18.60;99.90;;;;;;4149819;28;20221;-95
2023/04/30 10:27:35;;;;;;;14.07;8.77;;;18.80;99.90;;;;;;4166113;28;20183;-95
2023/04/30 10:29:36;;;;;;;13.90;9.82;;;18.90;99.90;;;;;;4150387;28;20172;-93
2023/04/30 10:31:38;;;;;;;13.18;9.05;;;18.90;99.90;;;;;;4148767;28;20239;-95
2023/04/30 10:33:58;;;;;;;15.85;9.25;;;18.90;99.90;;;;;;4148829;28;20189;-96
2023/04/30 10:36:03;;;;;;;16.08;10.02;;;18.70;99.90;;;;;;4165892;28;20227;-95
2023/04/30 10:38:21;;;;;;;13.38;8.52;;;18.60;99.90;;;;;;4165764;28;20168;-95
2023/04/30 10:40:28;;;;;;;13.27;8.60;;;18.60;99.90;;;;;;4149354;28;20184;-93